createdAt,value
2022-10-12T00:00:46.867Z,96.31
2022-10-12T00:01:47.106Z,96.42
2022-10-12T00:02:47.325Z,96.42
2022-10-12T00:03:47.523Z,96.42
2022-10-12T00:04:47.723Z,96.42
2022-10-12T00:05:47.931Z,96.31
2022-10-12T00:06:48.161Z,96.31
2022-10-12T00:07:48.370Z,96.31
2022-10-12T00:08:48.576Z,96.31
2022-10-12T00:09:48.777Z,96.31
2022-10-12T00:10:49.007Z,96.31
2022-10-12T00:11:49.237Z,96.31
2022-10-12T00:12:49.434Z,96.42
2022-10-12T00:13:49.638Z,96.42
2022-10-12T00:14:49.847Z,96.21
2022-10-12T00:15:50.046Z,96.11
2022-10-12T00:16:50.303Z,96.11
2022-10-12T00:17:50.505Z,96.11
2022-10-12T00:18:50.715Z,96.00
2022-10-12T00:19:50.920Z,95.90
2022-10-12T00:20:51.129Z,95.90
2022-10-12T00:21:51.361Z,96.00
2022-10-12T00:22:51.566Z,96.00
2022-10-12T00:23:51.785Z,96.05
2022-10-12T00:24:51.992Z,95.95
2022-10-12T00:25:52.205Z,95.95
2022-10-12T00:26:52.430Z,95.95
2022-10-12T00:27:52.636Z,96.15
2022-10-12T00:28:52.885Z,96.15
2022-10-12T00:29:52.996Z,96.25
2022-10-12T00:30:53.209Z,96.15
2022-10-12T00:31:53.441Z,96.15
2022-10-12T00:32:53.654Z,96.25
2022-10-12T00:33:53.852Z,96.46
2022-10-12T00:34:54.068Z,96.67
2022-10-12T00:35:54.273Z,96.67
2022-10-12T00:36:54.513Z,96.56
2022-10-12T00:37:54.717Z,96.46
2022-10-12T00:38:54.933Z,96.36
2022-10-12T00:39:55.152Z,96.36
2022-10-12T00:40:55.361Z,96.36
2022-10-12T00:41:55.591Z,96.36
2022-10-12T00:42:55.800Z,96.36
2022-10-12T00:43:58.609Z,96.36
2022-10-12T00:44:56.188Z,96.36
2022-10-12T00:45:56.415Z,96.46
2022-10-12T00:46:56.649Z,96.67
2022-10-12T00:47:56.857Z,96.67
2022-10-12T00:48:57.069Z,96.77
2022-10-12T00:49:57.279Z,96.77
2022-10-12T00:50:57.488Z,96.77
2022-10-12T00:51:57.715Z,96.67
2022-10-12T00:52:57.918Z,96.56
2022-10-12T00:53:58.139Z,96.56
2022-10-12T00:54:58.351Z,96.50
2022-10-12T00:55:58.567Z,96.50
2022-10-12T00:56:58.805Z,96.50
2022-10-12T00:57:59.011Z,96.61
2022-10-12T00:58:59.227Z,96.71
2022-10-12T00:59:59.420Z,96.92
2022-10-12T01:00:59.656Z,97.02
2022-10-12T01:01:59.903Z,97.13
2022-10-12T01:03:00.110Z,97.23
2022-10-12T01:04:00.319Z,97.23
2022-10-12T01:05:00.518Z,97.23
2022-10-12T01:06:00.721Z,97.23
2022-10-12T01:07:00.950Z,97.33
2022-10-12T01:08:01.155Z,97.43
2022-10-12T01:09:01.365Z,97.43
2022-10-12T01:10:01.574Z,97.43
2022-10-12T01:11:01.788Z,97.43
2022-10-12T01:12:02.013Z,97.43
2022-10-12T01:13:02.224Z,97.48
2022-10-12T01:14:02.421Z,97.58
2022-10-12T01:15:02.645Z,97.68
2022-10-12T01:16:02.852Z,97.64
2022-10-12T01:17:03.073Z,97.64
2022-10-12T01:18:03.287Z,97.64
2022-10-12T01:19:03.501Z,97.64
2022-10-12T01:20:03.715Z,97.53
2022-10-12T01:21:03.919Z,97.53
2022-10-12T01:22:04.146Z,97.53
2022-10-12T01:23:04.375Z,97.64
2022-10-12T01:24:04.582Z,97.68
2022-10-12T01:25:04.789Z,97.68
2022-10-12T01:26:05.001Z,97.58
2022-10-12T01:27:05.231Z,97.58
2022-10-12T01:28:05.458Z,97.68
2022-10-12T01:29:05.660Z,97.78
2022-10-12T01:30:05.869Z,97.89
2022-10-12T01:31:06.086Z,97.89
2022-10-12T01:32:06.307Z,97.78
2022-10-12T01:33:06.520Z,97.85
2022-10-12T01:34:06.730Z,97.74
2022-10-12T01:35:06.937Z,97.85
2022-10-12T01:36:07.140Z,97.85
2022-10-12T01:37:07.371Z,97.85
2022-10-12T01:38:07.578Z,97.85
2022-10-12T01:39:07.794Z,97.74
2022-10-12T01:40:08.005Z,97.64
2022-10-12T01:41:08.223Z,97.64
2022-10-12T01:42:08.447Z,97.53
2022-10-12T01:43:08.658Z,97.43
2022-10-12T01:44:08.866Z,97.33
2022-10-12T01:45:09.085Z,97.13
2022-10-12T01:46:09.281Z,97.17
2022-10-12T01:47:09.533Z,97.38
2022-10-12T01:48:09.713Z,97.58
2022-10-12T01:49:09.913Z,97.68
2022-10-12T01:50:10.124Z,97.78
2022-10-12T01:51:10.331Z,97.89
2022-10-12T01:52:10.544Z,97.89
2022-10-12T01:53:10.758Z,97.99
2022-10-12T01:54:10.966Z,98.20
2022-10-12T01:55:11.174Z,98.20
2022-10-12T01:56:11.374Z,98.20
2022-10-12T01:57:11.600Z,98.20
2022-10-12T01:58:11.827Z,98.10
2022-10-12T01:59:12.031Z,98.20
2022-10-12T02:00:12.245Z,98.30
2022-10-12T02:01:12.514Z,98.35
2022-10-12T02:02:12.641Z,98.35
2022-10-12T02:03:12.858Z,98.35
2022-10-12T02:04:13.062Z,98.35
2022-10-12T02:05:13.289Z,98.35
2022-10-12T02:06:13.488Z,98.35
2022-10-12T02:07:13.738Z,98.35
2022-10-12T02:08:13.949Z,98.45
2022-10-12T02:09:14.175Z,98.55
2022-10-12T02:10:14.389Z,98.55
2022-10-12T02:11:14.594Z,98.45
2022-10-12T02:12:14.813Z,98.45
2022-10-12T02:13:15.028Z,98.45
2022-10-12T02:14:15.229Z,98.45
2022-10-12T02:15:15.447Z,98.45
2022-10-12T02:16:15.650Z,98.45
2022-10-12T02:17:15.876Z,98.45
2022-10-12T02:18:16.101Z,98.55
2022-10-12T02:19:16.306Z,98.60
2022-10-12T02:20:16.511Z,98.60
2022-10-12T02:21:16.712Z,98.60
2022-10-12T02:22:16.947Z,98.80
2022-10-12T02:23:17.155Z,98.91
2022-10-12T02:24:17.394Z,98.97
2022-10-12T02:25:17.601Z,99.01
2022-10-12T02:26:17.808Z,99.01
2022-10-12T02:27:18.023Z,98.91
2022-10-12T02:28:18.280Z,98.91
2022-10-12T02:29:18.490Z,98.91
2022-10-12T02:30:21.121Z,99.22
2022-10-12T02:31:18.908Z,99.43
2022-10-12T02:32:19.128Z,99.73
2022-10-12T02:33:19.343Z,99.84
2022-10-12T02:34:19.550Z,99.99
2022-10-12T02:35:19.751Z,99.99
2022-10-12T02:36:19.971Z,99.99
2022-10-12T02:37:20.210Z,99.99
2022-10-12T02:38:20.426Z,99.99
2022-10-12T02:39:20.633Z,99.99
2022-10-12T02:40:20.847Z,99.99
2022-10-12T02:41:21.060Z,99.99
2022-10-12T02:42:21.299Z,99.99
2022-10-12T02:43:21.508Z,99.99
2022-10-12T02:44:21.720Z,99.99
2022-10-12T02:45:21.925Z,99.99
2022-10-12T02:46:22.145Z,99.99
2022-10-12T02:47:22.369Z,99.99
2022-10-12T02:48:22.583Z,99.99
2022-10-12T02:49:22.792Z,99.99
2022-10-12T02:50:23.007Z,99.99
2022-10-12T02:51:23.206Z,99.99
2022-10-12T02:52:23.438Z,99.99
2022-10-12T02:53:23.661Z,99.99
2022-10-12T02:54:23.875Z,99.99
2022-10-12T02:55:24.088Z,99.99
2022-10-12T02:56:24.315Z,99.99
2022-10-12T02:57:24.548Z,99.99
2022-10-12T02:58:24.765Z,99.99
2022-10-12T02:59:24.980Z,99.99
2022-10-12T03:00:25.209Z,99.99
2022-10-12T03:01:25.449Z,99.94
2022-10-12T03:02:25.651Z,99.94
2022-10-12T03:03:25.862Z,99.73
2022-10-12T03:04:26.074Z,99.73
2022-10-12T03:05:26.293Z,99.84
2022-10-12T03:06:26.514Z,99.84
2022-10-12T03:07:26.748Z,99.94
2022-10-12T03:08:26.984Z,99.94
2022-10-12T03:09:27.213Z,99.94
2022-10-12T03:10:27.433Z,99.84
2022-10-12T03:11:27.653Z,99.84
2022-10-12T03:12:27.882Z,99.84
2022-10-12T03:13:28.102Z,99.63
2022-10-12T03:14:28.327Z,99.52
2022-10-12T03:15:28.542Z,99.32
2022-10-12T03:16:28.760Z,99.32
2022-10-12T03:17:28.985Z,99.32
2022-10-12T03:18:29.207Z,99.32
2022-10-12T03:19:29.623Z,99.11
2022-10-12T03:20:29.616Z,99.11
2022-10-12T03:21:29.839Z,99.11
2022-10-12T03:22:30.079Z,99.01
2022-10-12T03:23:30.300Z,99.01
2022-10-12T03:24:30.518Z,98.70
2022-10-12T03:25:30.741Z,98.50
2022-10-12T03:26:30.961Z,98.39
2022-10-12T03:27:31.209Z,98.29
2022-10-12T03:28:31.473Z,98.19
2022-10-12T03:29:31.693Z,98.19
2022-10-12T03:30:31.908Z,98.19
2022-10-12T03:31:32.125Z,98.19
2022-10-12T03:32:32.348Z,98.19
2022-10-12T03:33:32.581Z,98.19
2022-10-12T03:34:32.798Z,98.19
2022-10-12T03:35:33.005Z,98.08
2022-10-12T03:36:33.222Z,98.08
2022-10-12T03:37:33.444Z,98.08
2022-10-12T03:38:33.659Z,98.19
2022-10-12T03:39:33.877Z,98.19
2022-10-12T03:40:34.090Z,98.19
2022-10-12T03:41:34.317Z,97.98
2022-10-12T03:42:34.536Z,97.98
2022-10-12T03:43:34.758Z,97.98
2022-10-12T03:44:34.978Z,97.98
2022-10-12T03:45:35.199Z,98.02
2022-10-12T03:46:35.428Z,98.02
2022-10-12T03:47:35.862Z,98.02
2022-10-12T03:48:35.913Z,97.92
2022-10-12T03:49:36.137Z,98.13
2022-10-12T03:50:36.371Z,98.13
2022-10-12T03:51:36.587Z,98.13
2022-10-12T03:52:36.840Z,98.13
2022-10-12T03:53:38.947Z,98.13
2022-10-12T03:54:37.352Z,98.02
2022-10-12T03:55:37.575Z,98.02
2022-10-12T03:56:37.805Z,98.02
2022-10-12T03:57:38.325Z,98.02
2022-10-12T03:58:38.306Z,98.13
2022-10-12T03:59:38.531Z,98.13
2022-10-12T04:00:38.780Z,98.02
2022-10-12T04:01:38.984Z,98.07
2022-10-12T04:02:39.186Z,98.07
2022-10-12T04:03:39.350Z,98.18
2022-10-12T04:04:39.628Z,98.28
2022-10-12T04:05:39.889Z,98.38
2022-10-12T04:06:40.149Z,98.49
2022-10-12T04:07:40.676Z,98.58
2022-10-12T04:08:40.588Z,98.58
2022-10-12T04:09:40.817Z,98.58
2022-10-12T04:10:41.043Z,98.58
2022-10-12T04:11:41.269Z,98.58
2022-10-12T04:12:41.521Z,98.58
2022-10-12T04:13:41.736Z,98.49
2022-10-12T04:14:41.971Z,98.38
2022-10-12T04:15:42.190Z,98.38
2022-10-12T04:16:42.415Z,98.28
2022-10-12T04:17:42.652Z,98.18
2022-10-12T04:18:42.875Z,98.28
2022-10-12T04:19:43.106Z,98.38
2022-10-12T04:20:43.346Z,98.38
2022-10-12T04:21:43.566Z,98.38
2022-10-12T04:22:43.824Z,98.38
2022-10-12T04:23:44.057Z,98.28
2022-10-12T04:24:44.283Z,98.18
2022-10-12T04:25:44.509Z,98.18
2022-10-12T04:26:44.737Z,98.18
2022-10-12T04:27:44.969Z,98.18
2022-10-12T04:28:45.248Z,98.18
2022-10-12T04:29:45.452Z,98.28
2022-10-12T04:30:45.679Z,98.28
2022-10-12T04:31:45.908Z,98.43
2022-10-12T04:32:46.163Z,98.32
2022-10-12T04:33:46.395Z,98.43
2022-10-12T04:34:46.612Z,98.63
2022-10-12T04:35:46.844Z,98.94
2022-10-12T04:36:47.072Z,99.05
2022-10-12T04:37:47.305Z,99.15
2022-10-12T04:38:47.530Z,99.19
2022-10-12T04:39:47.769Z,99.35
2022-10-12T04:40:47.995Z,99.46
2022-10-12T04:41:48.216Z,99.56
2022-10-12T04:42:48.474Z,99.56
2022-10-12T04:43:48.703Z,99.56
2022-10-12T04:44:48.940Z,99.56
2022-10-12T04:45:49.240Z,99.46
2022-10-12T04:46:49.391Z,99.21
2022-10-12T04:47:49.656Z,99.15
2022-10-12T04:48:49.900Z,99.15
2022-10-12T04:49:50.141Z,99.10
2022-10-12T04:50:51.475Z,99.00
2022-10-12T04:51:50.590Z,98.90
2022-10-12T04:52:50.851Z,98.79
2022-10-12T04:53:51.095Z,98.58
2022-10-12T04:54:51.273Z,98.49
2022-10-12T04:55:51.512Z,98.49
2022-10-12T04:56:51.783Z,98.43
2022-10-12T04:57:52.015Z,98.43
2022-10-12T04:58:52.282Z,98.43
2022-10-12T04:59:52.515Z,98.53
2022-10-12T05:00:52.774Z,98.53
2022-10-12T05:01:53.083Z,98.53
2022-10-12T05:02:53.211Z,98.53
2022-10-12T05:03:53.454Z,98.53
2022-10-12T05:04:53.710Z,98.53
2022-10-12T05:05:53.968Z,98.53
2022-10-12T05:06:55.104Z,98.53
2022-10-12T05:07:54.398Z,98.43
2022-10-12T05:08:54.630Z,98.43
2022-10-12T05:09:54.877Z,98.32
2022-10-12T05:10:55.128Z,98.22
2022-10-12T05:11:55.352Z,98.22
2022-10-12T05:12:55.590Z,98.32
2022-10-12T05:13:55.831Z,98.32
2022-10-12T05:14:56.070Z,98.32
2022-10-12T05:15:56.299Z,98.32
2022-10-12T05:16:56.540Z,98.32
2022-10-12T05:17:56.778Z,98.22
2022-10-12T05:18:57.006Z,98.11
2022-10-12T05:19:57.236Z,98.11
2022-10-12T05:20:57.490Z,98.01
2022-10-12T05:21:57.729Z,97.91
2022-10-12T05:22:57.958Z,98.01
2022-10-12T05:23:58.180Z,97.91
2022-10-12T05:24:58.402Z,97.81
2022-10-12T05:25:58.637Z,97.71
2022-10-12T05:26:58.895Z,97.71
2022-10-12T05:27:59.126Z,97.60
2022-10-12T05:28:59.378Z,97.60
2022-10-12T05:29:59.588Z,97.71
2022-10-12T05:30:59.831Z,97.71
2022-10-12T05:32:00.095Z,97.71
2022-10-12T05:33:00.326Z,97.71
2022-10-12T05:34:00.556Z,97.71
2022-10-12T05:35:00.805Z,97.81
2022-10-12T05:36:01.025Z,97.91
2022-10-12T05:37:01.304Z,97.91
2022-10-12T05:38:01.542Z,97.91
2022-10-12T05:39:01.773Z,97.91
2022-10-12T05:40:02.013Z,97.91
2022-10-12T05:41:02.238Z,97.91
2022-10-12T05:42:02.478Z,97.91
2022-10-12T05:43:02.761Z,97.81
2022-10-12T05:44:02.897Z,97.81
2022-10-12T05:45:03.139Z,97.60
2022-10-12T05:46:03.381Z,97.71
2022-10-12T05:47:03.636Z,97.71
2022-10-12T05:48:03.873Z,97.50
2022-10-12T05:49:04.106Z,97.39
2022-10-12T05:50:04.337Z,97.08
2022-10-12T05:51:04.577Z,96.94
2022-10-12T05:52:04.819Z,96.83
2022-10-12T05:53:05.051Z,96.52
2022-10-12T05:54:12.298Z,96.42
2022-10-12T05:55:05.548Z,96.31
2022-10-12T05:56:05.696Z,96.31
2022-10-12T05:57:05.959Z,96.37
2022-10-12T05:58:06.198Z,96.48
2022-10-12T05:59:06.427Z,95.96
2022-10-12T06:00:06.668Z,95.76
2022-10-12T06:01:07.868Z,95.55
2022-10-12T06:02:07.168Z,95.34
2022-10-12T06:03:07.295Z,95.09
2022-10-12T06:04:07.558Z,94.89
2022-10-12T06:05:07.838Z,94.68
2022-10-12T06:06:07.943Z,94.47
2022-10-12T06:07:08.199Z,94.47
2022-10-12T06:08:08.445Z,94.37
2022-10-12T06:09:08.676Z,94.02
2022-10-12T06:10:08.947Z,93.85
2022-10-12T06:11:09.156Z,93.81
2022-10-12T06:12:09.396Z,93.91
2022-10-12T06:13:09.626Z,93.81
2022-10-12T06:14:09.847Z,93.60
2022-10-12T06:15:10.081Z,93.35
2022-10-12T06:16:10.359Z,93.05
2022-10-12T06:17:10.503Z,92.90
2022-10-12T06:18:10.731Z,92.34
2022-10-12T06:19:11.063Z,90.92
2022-10-12T06:20:11.152Z,88.68
2022-10-12T06:22:12.561Z,85.13
2022-10-12T06:23:11.770Z,83.10
2022-10-12T06:24:11.987Z,80.57
2022-10-12T06:25:12.272Z,79.37
2022-10-12T06:26:12.377Z,77.19
2022-10-12T06:27:12.608Z,75.37
2022-10-12T06:28:12.833Z,74.25
2022-10-12T06:29:13.023Z,73.57
2022-10-12T06:30:13.248Z,72.52
2022-10-12T06:31:13.507Z,71.36
2022-10-12T06:32:13.722Z,70.95
2022-10-12T06:33:13.929Z,70.65
2022-10-12T06:34:14.149Z,70.04
2022-10-12T06:35:14.369Z,70.51
2022-10-12T06:36:14.608Z,70.17
2022-10-12T06:37:37.044Z,68.68
2022-10-12T06:38:15.992Z,68.44
2022-10-12T06:39:15.185Z,66.99
2022-10-12T06:40:15.381Z,65.47
2022-10-12T06:41:15.567Z,66.41
2022-10-12T06:42:15.757Z,66.82
2022-10-12T06:43:15.972Z,66.38
2022-10-12T06:44:16.156Z,64.83
2022-10-12T06:45:16.327Z,65.00
2022-10-12T06:46:16.512Z,64.29
2022-10-12T06:47:16.720Z,63.55
2022-10-12T06:48:18.792Z,63.34
2022-10-12T06:49:17.058Z,63.68
2022-10-12T06:50:17.253Z,63.37
2022-10-12T06:51:17.461Z,63.78
2022-10-12T06:52:17.672Z,63.37
2022-10-12T06:53:17.876Z,63.14
2022-10-12T06:54:18.107Z,63.65
2022-10-12T06:55:18.246Z,63.11
2022-10-12T06:56:18.470Z,61.53
2022-10-12T06:57:18.632Z,60.69
2022-10-12T06:58:18.816Z,60.69
2022-10-12T06:59:18.983Z,60.49
2022-10-12T07:00:19.160Z,61.53
2022-10-12T07:01:19.425Z,61.00
2022-10-12T07:02:19.793Z,60.19
2022-10-12T07:03:19.684Z,60.69
2022-10-12T07:04:19.860Z,61.53
2022-10-12T07:05:20.037Z,60.19
2022-10-12T07:06:20.170Z,60.49
2022-10-12T07:07:20.394Z,60.06
2022-10-12T07:08:20.445Z,58.92
2022-10-12T07:09:20.595Z,58.76
2022-10-12T07:10:20.780Z,58.12
2022-10-12T07:11:20.987Z,56.78
2022-10-12T07:12:21.085Z,56.15
2022-10-12T07:13:21.499Z,56.05
2022-10-12T07:14:21.353Z,56.38
2022-10-12T07:15:21.490Z,56.51
2022-10-12T07:16:21.643Z,57.98
2022-10-12T07:17:22.860Z,58.05
2022-10-12T07:18:21.937Z,58.25
2022-10-12T07:19:21.995Z,57.29
2022-10-12T07:20:22.199Z,56.32
2022-10-12T07:21:22.222Z,55.46
2022-10-12T07:22:22.409Z,54.28
2022-10-12T07:23:22.554Z,54.58
2022-10-12T07:24:22.716Z,54.25
2022-10-12T07:25:22.847Z,54.13
2022-10-12T07:26:23.002Z,53.20
2022-10-12T07:27:23.075Z,53.20
2022-10-12T07:28:23.354Z,53.07
2022-10-12T07:29:23.340Z,52.34
2022-10-12T07:30:23.513Z,52.04
2022-10-12T07:31:23.603Z,51.64
2022-10-12T07:32:23.724Z,51.51
2022-10-12T07:33:23.882Z,50.91
2022-10-12T07:34:24.014Z,51.41
2022-10-12T07:35:24.132Z,51.11
2022-10-12T07:36:24.640Z,51.61
2022-10-12T07:37:24.405Z,51.61
2022-10-12T07:38:24.544Z,51.73
2022-10-12T07:39:24.672Z,52.34
2022-10-12T07:40:24.814Z,51.71
2022-10-12T07:41:24.943Z,52.69
2022-10-12T07:42:25.077Z,52.26
2022-10-12T07:43:25.188Z,51.84
2022-10-12T07:44:25.302Z,51.31
2022-10-12T07:45:25.433Z,51.43
2022-10-12T07:46:25.573Z,52.04
2022-10-12T07:47:25.715Z,51.51
2022-10-12T07:48:25.858Z,51.51
2022-10-12T07:49:25.995Z,51.59
2022-10-12T07:50:26.101Z,50.26
2022-10-12T07:51:26.211Z,50.05
2022-10-12T07:52:26.350Z,50.05
2022-10-12T07:53:26.501Z,51.09
2022-10-12T07:54:29.407Z,50.78
2022-10-12T07:55:26.704Z,50.98
2022-10-12T07:56:26.816Z,51.91
2022-10-12T07:57:26.925Z,51.06
2022-10-12T07:58:27.621Z,50.01
2022-10-12T07:59:27.167Z,49.51
2022-10-12T08:00:27.327Z,49.08
2022-10-12T08:01:27.364Z,49.16
2022-10-12T08:02:27.343Z,47.83
2022-10-12T08:03:27.444Z,48.23
2022-10-12T08:04:27.555Z,48.78
2022-10-12T08:05:27.663Z,50.63
2022-10-12T08:06:27.774Z,50.05
2022-10-12T08:07:27.869Z,52.24
2022-10-12T08:08:27.982Z,53.80
2022-10-12T08:09:28.157Z,53.88
2022-10-12T08:10:28.178Z,52.72
2022-10-12T08:11:28.266Z,51.81
2022-10-12T08:12:28.383Z,52.09
2022-10-12T08:13:28.580Z,51.44
2022-10-12T08:14:28.694Z,50.33
2022-10-12T08:15:28.695Z,50.56
2022-10-12T08:16:28.794Z,50.86
2022-10-12T08:17:28.907Z,49.71
2022-10-12T08:18:29.003Z,49.58
2022-10-12T08:19:33.069Z,50.23
2022-10-12T08:20:30.187Z,50.84
2022-10-12T08:21:29.282Z,49.93
2022-10-12T08:22:29.387Z,50.31
2022-10-12T08:23:29.525Z,48.75
2022-10-12T08:24:29.596Z,48.66
2022-10-12T08:25:29.582Z,49.71
2022-10-12T08:26:30.676Z,50.05
2022-10-12T08:27:29.759Z,50.35
2022-10-12T08:28:29.929Z,50.01
2022-10-12T08:29:30.026Z,50.03
2022-10-12T08:30:30.247Z,50.61
2022-10-12T08:31:30.193Z,49.80
2022-10-12T08:32:30.206Z,49.38
2022-10-12T08:33:30.360Z,48.88
2022-10-12T08:34:30.357Z,49.08
2022-10-12T08:35:30.447Z,49.28
2022-10-12T08:36:30.560Z,48.33
2022-10-12T08:37:30.686Z,47.73
2022-10-12T08:38:30.777Z,47.63
2022-10-12T08:39:30.875Z,48.03
2022-10-12T08:40:30.983Z,47.61
2022-10-12T08:41:31.092Z,47.28
2022-10-12T08:42:31.802Z,47.11
2022-10-12T08:43:31.197Z,47.50
2022-10-12T08:44:31.351Z,47.91
2022-10-12T08:45:31.362Z,46.56
2022-10-12T08:46:31.328Z,46.46
2022-10-12T08:47:31.424Z,46.04
2022-10-12T08:48:31.522Z,45.92
2022-10-12T08:49:31.640Z,45.81
2022-10-12T08:50:31.702Z,46.31
2022-10-12T08:51:31.794Z,46.12
2022-10-12T08:52:31.878Z,46.09
2022-10-12T08:53:31.966Z,45.72
2022-10-12T08:54:32.055Z,46.12
2022-10-12T08:55:32.179Z,45.96
2022-10-12T08:56:32.207Z,47.28
2022-10-12T08:57:32.267Z,47.78
2022-10-12T08:58:32.336Z,47.42
2022-10-12T08:59:32.554Z,44.89
2022-10-12T09:01:32.500Z,44.45
2022-10-12T09:02:32.445Z,43.53
2022-10-12T09:03:32.515Z,44.33
2022-10-12T09:04:32.600Z,43.83
2022-10-12T09:05:32.697Z,43.98
2022-10-12T09:06:32.778Z,44.92
2022-10-12T09:07:32.841Z,45.51
2022-10-12T09:08:33.519Z,45.09
2022-10-12T09:09:33.200Z,45.42
2022-10-12T09:10:33.408Z,45.39
2022-10-12T09:11:33.600Z,44.25
2022-10-12T09:12:32.911Z,44.07
2022-10-12T09:13:32.955Z,45.14
2022-10-12T09:14:33.016Z,44.89
2022-10-12T09:15:33.072Z,43.87
2022-10-12T09:16:33.129Z,44.25
2022-10-12T09:17:33.185Z,43.37
2022-10-12T09:18:36.989Z,43.07
2022-10-12T09:19:34.266Z,43.18
2022-10-12T09:20:33.389Z,43.79
2022-10-12T09:21:33.313Z,43.99
2022-10-12T09:22:33.360Z,43.98
2022-10-12T09:23:33.440Z,43.70
2022-10-12T09:24:33.548Z,43.48
2022-10-12T09:25:33.530Z,43.79
2022-10-12T09:26:33.463Z,43.90
2022-10-12T09:27:33.564Z,42.65
2022-10-12T09:28:33.904Z,42.55
2022-10-12T09:29:33.580Z,42.93
2022-10-12T09:30:33.625Z,41.71
2022-10-12T09:31:33.677Z,41.80
2022-10-12T09:32:33.816Z,40.98
2022-10-12T09:33:33.734Z,40.68
2022-10-12T09:34:33.689Z,41.50
2022-10-12T09:35:33.931Z,41.71
2022-10-12T09:36:34.025Z,42.47
2022-10-12T09:37:33.831Z,41.06
2022-10-12T09:38:33.896Z,40.46
2022-10-12T09:39:33.951Z,39.64
2022-10-12T09:40:34.010Z,39.92
2022-10-12T09:41:34.053Z,39.70
2022-10-12T09:42:34.091Z,39.50
2022-10-12T09:43:34.162Z,38.89
2022-10-12T09:44:34.194Z,40.20
2022-10-12T09:45:37.326Z,39.29
2022-10-12T09:46:34.289Z,39.07
2022-10-12T09:47:34.106Z,39.47
2022-10-12T09:48:34.151Z,39.98
2022-10-12T09:49:34.181Z,38.93
2022-10-12T09:50:34.234Z,39.12
2022-10-12T09:51:34.266Z,39.01
2022-10-12T09:52:34.366Z,38.61
2022-10-12T09:53:34.356Z,39.39
2022-10-12T09:54:34.444Z,39.32
2022-10-12T09:55:34.427Z,39.42
2022-10-12T09:56:34.346Z,39.92
2022-10-12T09:57:34.370Z,39.90
2022-10-12T09:58:34.424Z,39.50
2022-10-12T09:59:34.442Z,38.91
2022-10-12T10:00:34.631Z,39.23
2022-10-12T10:01:34.522Z,39.54
2022-10-12T10:02:34.468Z,40.08
2022-10-12T10:03:34.430Z,41.00
2022-10-12T10:04:34.440Z,40.32
2022-10-12T10:05:34.471Z,40.81
2022-10-12T10:06:35.114Z,41.03
2022-10-12T10:07:34.463Z,41.46
2022-10-12T10:08:34.496Z,41.22
2022-10-12T10:09:34.610Z,41.75
2022-10-12T10:10:34.545Z,41.36
2022-10-12T10:11:34.576Z,42.38
2022-10-12T10:12:34.604Z,41.03
2022-10-12T10:13:34.665Z,40.64
2022-10-12T10:14:34.694Z,41.99
2022-10-12T10:15:34.738Z,42.32
2022-10-12T10:16:34.799Z,42.82
2022-10-12T10:17:34.823Z,42.91
2022-10-12T10:18:34.893Z,43.29
2022-10-12T10:19:34.919Z,41.75
2022-10-12T10:20:34.991Z,42.71
2022-10-12T10:21:34.926Z,42.69
2022-10-12T10:22:34.979Z,42.05
2022-10-12T10:23:35.641Z,41.33
2022-10-12T10:24:35.024Z,41.58
2022-10-12T10:25:35.086Z,42.49
2022-10-12T10:26:35.142Z,42.49
2022-10-12T10:27:35.406Z,42.47
2022-10-12T10:28:35.230Z,41.97
2022-10-12T10:29:35.141Z,41.67
2022-10-12T10:30:39.905Z,41.96
2022-10-12T10:31:36.225Z,41.66
2022-10-12T10:32:35.524Z,42.11
2022-10-12T10:33:35.240Z,40.00
2022-10-12T10:34:35.276Z,41.25
2022-10-12T10:35:35.650Z,40.92
2022-10-12T10:36:35.348Z,40.48
2022-10-12T10:37:35.414Z,40.38
2022-10-12T10:38:35.593Z,40.64
2022-10-12T10:39:35.433Z,39.12
2022-10-12T10:40:35.520Z,39.34
2022-10-12T10:41:36.422Z,40.06
2022-10-12T10:42:35.469Z,40.59
2022-10-12T10:43:35.529Z,40.20
2022-10-12T10:44:35.547Z,40.62
2022-10-12T10:45:35.599Z,40.92
2022-10-12T10:46:35.609Z,40.62
2022-10-12T10:47:35.777Z,40.80
2022-10-12T10:48:35.712Z,40.18
2022-10-12T10:49:35.726Z,40.20
2022-10-12T10:50:35.752Z,41.03
2022-10-12T10:51:35.794Z,41.14
2022-10-12T10:52:35.833Z,41.31
2022-10-12T10:53:35.912Z,41.22
2022-10-12T10:54:35.858Z,40.20
2022-10-12T10:55:35.904Z,40.10
2022-10-12T10:56:35.946Z,39.94
2022-10-12T10:57:36.001Z,38.73
2022-10-12T10:58:36.030Z,39.56
2022-10-12T10:59:36.087Z,39.86
2022-10-12T11:00:40.820Z,39.14
2022-10-12T11:01:37.152Z,38.75
2022-10-12T11:02:36.111Z,39.66
2022-10-12T11:03:36.060Z,39.46
2022-10-12T11:04:36.095Z,39.23
2022-10-12T11:05:36.169Z,38.61
2022-10-12T11:06:36.179Z,38.54
2022-10-12T11:07:36.244Z,40.04
2022-10-12T11:08:36.169Z,41.33
2022-10-12T11:09:36.259Z,41.67
2022-10-12T11:10:36.259Z,42.71
2022-10-12T11:11:36.317Z,43.41
2022-10-12T11:12:36.353Z,42.11
2022-10-12T11:13:36.543Z,40.50
2022-10-12T11:14:36.369Z,39.83
2022-10-12T11:15:36.411Z,38.11
2022-10-12T11:16:36.516Z,38.61
2022-10-12T11:17:36.447Z,38.39
2022-10-12T11:18:36.403Z,38.13
2022-10-12T11:19:36.442Z,37.49
2022-10-12T11:20:36.703Z,37.70
2022-10-12T11:21:36.568Z,36.75
2022-10-12T11:22:36.675Z,36.93
2022-10-12T11:23:36.591Z,36.04
2022-10-12T11:24:36.639Z,36.36
2022-10-12T11:25:36.659Z,37.08
2022-10-12T11:26:36.668Z,37.36
2022-10-12T11:27:36.705Z,38.56
2022-10-12T11:28:37.468Z,39.50
2022-10-12T11:29:36.734Z,41.47
2022-10-12T11:30:36.778Z,42.66
2022-10-12T11:31:36.811Z,44.30
2022-10-12T11:32:36.894Z,43.54
2022-10-12T11:33:36.801Z,42.27
2022-10-12T11:34:36.836Z,40.52
2022-10-12T11:35:36.917Z,40.32
2022-10-12T11:36:36.912Z,40.30
2022-10-12T11:37:36.955Z,39.88
2022-10-12T11:38:36.941Z,39.14
2022-10-12T11:39:36.869Z,37.77
2022-10-12T11:41:38.000Z,38.13
2022-10-12T11:42:41.089Z,38.67
2022-10-12T11:43:37.932Z,38.46
2022-10-12T11:44:37.083Z,39.00
2022-10-12T11:45:36.959Z,39.28
2022-10-12T11:46:37.020Z,38.76
2022-10-12T11:47:37.061Z,38.35
2022-10-12T11:48:37.117Z,38.27
2022-10-12T11:49:37.164Z,37.71
2022-10-12T11:50:37.207Z,37.73
2022-10-12T11:51:37.236Z,39.20
2022-10-12T11:52:37.343Z,39.74
2022-10-12T11:53:37.275Z,41.31
2022-10-12T11:54:44.297Z,42.27
2022-10-12T11:55:37.327Z,43.92
2022-10-12T11:56:37.368Z,44.96
2022-10-12T11:57:37.429Z,44.64
2022-10-12T11:58:59.457Z,44.34
2022-10-12T11:59:38.551Z,44.82
2022-10-12T12:00:37.513Z,42.88
2022-10-12T12:01:37.569Z,41.31
2022-10-12T12:02:37.637Z,39.65
2022-10-12T12:03:37.762Z,39.12
2022-10-12T12:04:47.472Z,38.27
2022-10-12T12:05:38.699Z,37.38
2022-10-12T12:06:37.738Z,38.72
2022-10-12T12:07:37.803Z,38.18
2022-10-12T12:08:37.849Z,37.79
2022-10-12T12:09:37.898Z,38.18
2022-10-12T12:10:37.947Z,38.27
2022-10-12T12:11:38.124Z,38.60
2022-10-12T12:12:38.092Z,38.68
2022-10-12T12:13:38.134Z,37.95
2022-10-12T12:14:38.176Z,38.80
2022-10-12T12:15:38.242Z,39.32
2022-10-12T12:16:38.280Z,39.22
2022-10-12T12:17:38.335Z,39.52
2022-10-12T12:18:38.380Z,39.14
2022-10-12T12:19:38.437Z,39.69
2022-10-12T12:20:38.509Z,41.15
2022-10-12T12:21:38.559Z,41.38
2022-10-12T12:22:38.630Z,42.16
2022-10-12T12:23:38.687Z,41.21
2022-10-12T12:24:39.284Z,40.81
2022-10-12T12:25:38.787Z,41.09
2022-10-12T12:26:38.835Z,40.23
2022-10-12T12:27:38.924Z,38.40
2022-10-12T12:28:38.882Z,38.31
2022-10-12T12:29:38.941Z,38.09
2022-10-12T12:30:39.030Z,38.00
2022-10-12T12:31:39.004Z,38.39
2022-10-12T12:32:38.990Z,37.68
2022-10-12T12:33:38.933Z,38.37
2022-10-12T12:34:38.970Z,36.74
2022-10-12T12:35:39.026Z,36.22
2022-10-12T12:36:39.067Z,36.30
2022-10-12T12:37:39.131Z,36.44
2022-10-12T12:38:39.180Z,36.35
2022-10-12T12:39:39.217Z,36.85
2022-10-12T12:40:39.252Z,36.87
2022-10-12T12:41:39.291Z,37.72
2022-10-12T12:42:39.360Z,38.04
2022-10-12T12:43:39.288Z,39.02
2022-10-12T12:44:39.273Z,38.62
2022-10-12T12:45:39.339Z,38.32
2022-10-12T12:46:39.373Z,38.32
2022-10-12T12:47:45.501Z,37.51
2022-10-12T12:48:40.417Z,37.47
2022-10-12T12:49:39.447Z,37.15
2022-10-12T12:50:39.492Z,37.15
2022-10-12T12:51:39.532Z,36.80
2022-10-12T12:52:39.576Z,35.39
2022-10-12T12:53:39.611Z,35.69
2022-10-12T12:54:39.640Z,35.57
2022-10-12T12:55:39.673Z,35.69
2022-10-12T12:56:39.717Z,35.27
2022-10-12T12:57:39.765Z,36.04